Mobirise responsive web design software

BENAVENTE

METAR: BENAV 260120Z 08004KT 10/06 Q1007
Latest Report: 2018-02-26 01:23:12Z (4 minutes ago)

 07:14 LT      18:21 LT

Location: Benavente (Tertúlia CVB)
Lat: 385448N Long: 0084709W
Elevation: 30.5m/100FT
Runway: 10/28 (370x20m)
Runway: 15/33 (520x20m)
Frequency: 122.675 Mhz

Approved Traffic: Ultralight Aircraft
Hours of Operation: HJ
image

PRESENT WEATHER - BENAVENTE

Latest Report: 2018-02-26 01:23:12Z
 

080/04KT

10ºC

6ºC

1007 hPa

0.00 mm

WEATHER HISTORY

[ All times in Zulu ]

  SEARCH METAR HISTORY
METAR (Last Hour)
BENAV 260115Z 09004KT 10/06 Q1007
BENAV 260105Z 10004KT 10/05 Q1007
BENAV 260055Z 14006KT 10/05 Q1008
BENAV 260045Z 14006KT 10/05 Q1007
BENAV 260035Z 13006KT 10/05 Q1007
BENAV 260025Z 14006KT 10/05 Q1008
Wind Trend (Last Hour)
Average Wind Direction: 120 °
Average Wind Speed: 5 KT
 
Maximum Wind Speed: 8 KT
Maximum Gust: 8 KT
 
Station records since2016-06-17 11:10:51
Minimum Pressure: 993 hPa @ 2017-02-12 13:59:15
Maximum Pressure: 1037 hPa @ 2016-12-23 09:25:33
  
Minimum Temperature: -4° C @ 2017-01-19 07:49:36
Maximum Temperature: 41° C @ 2016-09-05 14:40:19
  
Maximum Wind: 39 KT @ 2017-02-09 17:25:27
Maximum Gust: 43 KT @ 2017-02-09 17:25:27
  
Maximum Daily Rain (mm): 38.35 mm @ 2017-05-11 22:06:32
Days without rain: 16 days (since 2018-02-09 06:13:27)